sensor_id;sensor_type;location;lat;lon;timestamp;pressure;altitude;pressure_sealevel;temperature
71807;BMP280;59655;42.590;23.364;2023-05-07T00:00:17;91729.69;;;11.26
71807;BMP280;59655;42.590;23.364;2023-05-07T00:02:44;91728.44;;;11.19
71807;BMP280;59655;42.590;23.364;2023-05-07T00:05:10;91724.72;;;11.14
71807;BMP280;59655;42.590;23.364;2023-05-07T00:07:36;91723.84;;;11.19
71807;BMP280;59655;42.590;23.364;2023-05-07T00:10:02;91730.94;;;11.25
71807;BMP280;59655;42.590;23.364;2023-05-07T00:12:27;91733.41;;;11.23
71807;BMP280;59655;42.590;23.364;2023-05-07T00:14:53;91730.41;;;11.18
71807;BMP280;59655;42.590;23.364;2023-05-07T00:17:18;91727.91;;;11.21
71807;BMP280;59655;42.590;23.364;2023-05-07T00:19:43;91730.94;;;11.25
71807;BMP280;59655;42.590;23.364;2023-05-07T00:22:09;91725.97;;;11.21
71807;BMP280;59655;42.590;23.364;2023-05-07T00:24:35;91731.81;;;11.19
71807;BMP280;59655;42.590;23.364;2023-05-07T00:27:00;91725.25;;;11.21
71807;BMP280;59655;42.590;23.364;2023-05-07T00:29:26;91726.69;;;11.14
71807;BMP280;59655;42.590;23.364;2023-05-07T00:31:51;91723.50;;;11.15
71807;BMP280;59655;42.590;23.364;2023-05-07T00:34:19;91724.91;;;11.16
71807;BMP280;59655;42.590;23.364;2023-05-07T00:36:45;91727.03;;;11.18
71807;BMP280;59655;42.590;23.364;2023-05-07T00:39:10;91727.19;;;11.20
71807;BMP280;59655;42.590;23.364;2023-05-07T00:41:36;91737.66;;;11.10
71807;BMP280;59655;42.590;23.364;2023-05-07T00:44:01;91728.28;;;11.09
71807;BMP280;59655;42.590;23.364;2023-05-07T00:46:27;91736.06;;;11.15
71807;BMP280;59655;42.590;23.364;2023-05-07T00:48:53;91728.63;;;11.06
71807;BMP280;59655;42.590;23.364;2023-05-07T00:51:19;91724.19;;;11.01
71807;BMP280;59655;42.590;23.364;2023-05-07T00:53:45;91727.56;;;11.09
71807;BMP280;59655;42.590;23.364;2023-05-07T00:56:11;91732.16;;;11.08
71807;BMP280;59655;42.590;23.364;2023-05-07T00:58:37;91734.13;;;11.08
71807;BMP280;59655;42.590;23.364;2023-05-07T01:01:02;91738.72;;;11.07
71807;BMP280;59655;42.590;23.364;2023-05-07T01:03:28;91731.97;;;11.06
71807;BMP280;59655;42.590;23.364;2023-05-07T01:05:55;91737.28;;;11.06
71807;BMP280;59655;42.590;23.364;2023-05-07T01:08:24;91733.03;;;11.03
71807;BMP280;59655;42.590;23.364;2023-05-07T01:10:52;91739.44;;;11.08
71807;BMP280;59655;42.590;23.364;2023-05-07T01:13:18;91738.19;;;11.01
71807;BMP280;59655;42.590;23.364;2023-05-07T01:15:44;91737.66;;;10.95
71807;BMP280;59655;42.590;23.364;2023-05-07T01:18:10;91739.06;;;10.96
71807;BMP280;59655;42.590;23.364;2023-05-07T01:20:35;91731.97;;;10.99
71807;BMP280;59655;42.590;23.364;2023-05-07T01:23:02;91733.75;;;10.96
71807;BMP280;59655;42.590;23.364;2023-05-07T01:25:28;91728.94;;;10.87
71807;BMP280;59655;42.590;23.364;2023-05-07T01:27:54;91737.97;;;10.76
71807;BMP280;59655;42.590;23.364;2023-05-07T01:30:20;91738.88;;;10.79
71807;BMP280;59655;42.590;23.364;2023-05-07T01:32:53;91727.47;;;10.63
71807;BMP280;59655;42.590;23.364;2023-05-07T01:35:25;91723.03;;;10.42
71807;BMP280;59655;42.590;23.364;2023-05-07T01:37:52;91726.00;;;10.39
71807;BMP280;59655;42.590;23.364;2023-05-07T01:40:18;91722.63;;;10.30
71807;BMP280;59655;42.590;23.364;2023-05-07T01:42:44;91716.47;;;10.36
71807;BMP280;59655;42.590;23.364;2023-05-07T01:45:10;91711.66;;;10.19
71807;BMP280;59655;42.590;23.364;2023-05-07T01:47:37;91715.72;;;10.27
71807;BMP280;59655;42.590;23.364;2023-05-07T01:50:05;91720.31;;;10.19
71807;BMP280;59655;42.590;23.364;2023-05-07T01:52:31;91712.28;;;10.12
71807;BMP280;59655;42.590;23.364;2023-05-07T01:54:56;91707.78;;;10.27
71807;BMP280;59655;42.590;23.364;2023-05-07T01:57:22;91708.63;;;10.22
71807;BMP280;59655;42.590;23.364;2023-05-07T01:59:47;91701.75;;;10.19
71807;BMP280;59655;42.590;23.364;2023-05-07T02:02:13;91693.78;;;10.19
71807;BMP280;59655;42.590;23.364;2023-05-07T02:04:38;91702.47;;;10.27
71807;BMP280;59655;42.590;23.364;2023-05-07T02:07:04;91694.69;;;10.29
71807;BMP280;59655;42.590;23.364;2023-05-07T02:09:29;91686.56;;;10.27
71807;BMP280;59655;42.590;23.364;2023-05-07T02:11:55;91684.03;;;10.22
71807;BMP280;59655;42.590;23.364;2023-05-07T02:14:20;91680.34;;;10.17
71807;BMP280;59655;42.590;23.364;2023-05-07T02:16:46;91679.63;;;10.17
71807;BMP280;59655;42.590;23.364;2023-05-07T02:19:11;91680.34;;;10.17
71807;BMP280;59655;42.590;23.364;2023-05-07T02:21:36;91669.53;;;10.15
71807;BMP280;59655;42.590;23.364;2023-05-07T02:24:02;91674.84;;;10.15
71807;BMP280;59655;42.590;23.364;2023-05-07T02:26:27;91668.78;;;10.07
71807;BMP280;59655;42.590;23.364;2023-05-07T02:28:53;91658.41;;;10.09
71807;BMP280;59655;42.590;23.364;2023-05-07T02:31:19;91659.44;;;10.06
71807;BMP280;59655;42.590;23.364;2023-05-07T02:33:44;91663.13;;;10.03
71807;BMP280;59655;42.590;23.364;2023-05-07T02:36:11;91659.38;;;9.91
71807;BMP280;59655;42.590;23.364;2023-05-07T02:38:38;91671.03;;;9.95
71807;BMP280;59655;42.590;23.364;2023-05-07T02:41:04;91664.53;;;9.96
71807;BMP280;59655;42.590;23.364;2023-05-07T02:43:30;91667.53;;;9.93
71807;BMP280;59655;42.590;23.364;2023-05-07T02:46:06;91660.56;;;9.82
71807;BMP280;59655;42.590;23.364;2023-05-07T02:48:31;91660.16;;;9.70
71807;BMP280;59655;42.590;23.364;2023-05-07T02:50:58;91660.38;;;9.80
71807;BMP280;59655;42.590;23.364;2023-05-07T02:53:23;91663.94;;;9.82
71807;BMP280;59655;42.590;23.364;2023-05-07T02:55:58;91665.50;;;9.78
71807;BMP280;59655;42.590;23.364;2023-05-07T02:58:23;91664.78;;;9.77
71807;BMP280;59655;42.590;23.364;2023-05-07T03:00:49;91663.53;;;9.71
71807;BMP280;59655;42.590;23.364;2023-05-07T03:03:15;91668.28;;;9.72
71807;BMP280;59655;42.590;23.364;2023-05-07T03:05:41;91676.06;;;9.70
71807;BMP280;59655;42.590;23.364;2023-05-07T03:08:07;91665.84;;;9.74
71807;BMP280;59655;42.590;23.364;2023-05-07T03:10:32;91671.13;;;9.74
71807;BMP280;59655;42.590;23.364;2023-05-07T03:12:58;91670.78;;;9.78
71807;BMP280;59655;42.590;23.364;2023-05-07T03:15:23;91673.44;;;9.78
71807;BMP280;59655;42.590;23.364;2023-05-07T03:17:49;91675.56;;;9.79
71807;BMP280;59655;42.590;23.364;2023-05-07T03:20:14;91671.53;;;9.78
71807;BMP280;59655;42.590;23.364;2023-05-07T03:22:40;91677.00;;;9.80
71807;BMP280;59655;42.590;23.364;2023-05-07T03:25:06;91676.75;;;9.63
71807;BMP280;59655;42.590;23.364;2023-05-07T03:27:32;91684.69;;;9.63
71807;BMP280;59655;42.590;23.364;2023-05-07T03:29:58;91682.78;;;9.71
71807;BMP280;59655;42.590;23.364;2023-05-07T03:32:23;91682.97;;;9.73
71807;BMP280;59655;42.590;23.364;2023-05-07T03:34:49;91682.50;;;9.82
71807;BMP280;59655;42.590;23.364;2023-05-07T03:37:14;91685.47;;;9.79
71807;BMP280;59655;42.590;23.364;2023-05-07T03:39:40;91683.16;;;9.75
71807;BMP280;59655;42.590;23.364;2023-05-07T03:42:06;91684.97;;;9.80
71807;BMP280;59655;42.590;23.364;2023-05-07T03:44:33;91690.44;;;9.82
71807;BMP280;59655;42.590;23.364;2023-05-07T03:47:00;91688.16;;;9.86
71807;BMP280;59655;42.590;23.364;2023-05-07T03:49:25;91685.69;;;9.88
71807;BMP280;59655;42.590;23.364;2023-05-07T03:51:50;91688.34;;;9.88
71807;BMP280;59655;42.590;23.364;2023-05-07T03:54:16;91690.28;;;9.88
71807;BMP280;59655;42.590;23.364;2023-05-07T03:56:41;91691.88;;;9.91
71807;BMP280;59655;42.590;23.364;2023-05-07T03:59:07;91695.97;;;9.92
71807;BMP280;59655;42.590;23.364;2023-05-07T04:01:33;91694.19;;;9.95
71807;BMP280;59655;42.590;23.364;2023-05-07T04:03:58;91691.53;;;9.95
71807;BMP280;59655;42.590;23.364;2023-05-07T04:06:25;91704.78;;;9.95
71807;BMP280;59655;42.590;23.364;2023-05-07T04:08:50;91704.78;;;9.95
71807;BMP280;59655;42.590;23.364;2023-05-07T04:11:16;91706.41;;;9.98
71807;BMP280;59655;42.590;23.364;2023-05-07T04:13:41;91714.03;;;10.01
71807;BMP280;59655;42.590;23.364;2023-05-07T04:16:08;91717.75;;;10.06
71807;BMP280;59655;42.590;23.364;2023-05-07T04:18:33;91719.16;;;10.07
71807;BMP280;59655;42.590;23.364;2023-05-07T04:20:58;91730.34;;;10.13
71807;BMP280;59655;42.590;23.364;2023-05-07T04:23:24;91733.19;;;10.15
71807;BMP280;59655;42.590;23.364;2023-05-07T04:25:50;91726.81;;;10.18
71807;BMP280;59655;42.590;23.364;2023-05-07T04:28:15;91742.38;;;10.22
71807;BMP280;59655;42.590;23.364;2023-05-07T04:30:41;91738.19;;;10.26
71807;BMP280;59655;42.590;23.364;2023-05-07T04:33:06;91743.69;;;10.28
71807;BMP280;59655;42.590;23.364;2023-05-07T04:35:32;91739.44;;;10.33
71807;BMP280;59655;42.590;23.364;2023-05-07T04:37:57;91743.13;;;10.38
71807;BMP280;59655;42.590;23.364;2023-05-07T04:40:23;91748.63;;;10.40
71807;BMP280;59655;42.590;23.364;2023-05-07T04:42:48;91748.31;;;10.43
71807;BMP280;59655;42.590;23.364;2023-05-07T04:45:14;91750.59;;;10.47
71807;BMP280;59655;42.590;23.364;2023-05-07T04:47:40;91755.59;;;10.50
71807;BMP280;59655;42.590;23.364;2023-05-07T04:50:06;91760.53;;;10.54
71807;BMP280;59655;42.590;23.364;2023-05-07T04:52:33;91758.25;;;10.58
71807;BMP280;59655;42.590;23.364;2023-05-07T04:55:01;91763.25;;;10.62
71807;BMP280;59655;42.590;23.364;2023-05-07T04:57:28;91764.09;;;10.64
71807;BMP280;59655;42.590;23.364;2023-05-07T04:59:54;91764.81;;;10.65
71807;BMP280;59655;42.590;23.364;2023-05-07T05:02:19;91760.41;;;10.67
71807;BMP280;59655;42.590;23.364;2023-05-07T05:04:45;91758.13;;;10.71
71807;BMP280;59655;42.590;23.364;2023-05-07T05:07:10;91758.84;;;10.80
71807;BMP280;59655;42.590;23.364;2023-05-07T05:09:35;91752.31;;;10.81
71807;BMP280;59655;42.590;23.364;2023-05-07T05:12:01;91759.03;;;10.82
71807;BMP280;59655;42.590;23.364;2023-05-07T05:14:26;91761.31;;;10.78
71807;BMP280;59655;42.590;23.364;2023-05-07T05:16:52;91756.38;;;10.82
71807;BMP280;59655;42.590;23.364;2023-05-07T05:19:17;91759.22;;;10.84
71807;BMP280;59655;42.590;23.364;2023-05-07T05:21:43;91758.16;;;10.87
71807;BMP280;59655;42.590;23.364;2023-05-07T05:24:08;91748.22;;;10.87
71807;BMP280;59655;42.590;23.364;2023-05-07T05:26:34;91752.00;;;10.92
71807;BMP280;59655;42.590;23.364;2023-05-07T05:28:59;91756.75;;;10.93
71807;BMP280;59655;42.590;23.364;2023-05-07T05:31:25;91761.69;;;10.97
71807;BMP280;59655;42.590;23.364;2023-05-07T05:33:50;91759.97;;;11.00
71807;BMP280;59655;42.590;23.364;2023-05-07T05:36:16;91753.41;;;11.01
71807;BMP280;59655;42.590;23.364;2023-05-07T05:38:41;91753.59;;;11.03
71807;BMP280;59655;42.590;23.364;2023-05-07T05:41:07;91749.69;;;11.04
71807;BMP280;59655;42.590;23.364;2023-05-07T05:43:32;91766.69;;;11.08
71807;BMP280;59655;42.590;23.364;2023-05-07T05:45:58;91763.34;;;11.15
71807;BMP280;59655;42.590;23.364;2023-05-07T05:48:24;91769.16;;;11.22
71807;BMP280;59655;42.590;23.364;2023-05-07T05:50:49;91768.28;;;11.27
71807;BMP280;59655;42.590;23.364;2023-05-07T05:53:15;91761.72;;;11.28
71807;BMP280;59655;42.590;23.364;2023-05-07T05:55:41;91767.75;;;11.36
71807;BMP280;59655;42.590;23.364;2023-05-07T05:58:06;91766.53;;;11.45
71807;BMP280;59655;42.590;23.364;2023-05-07T06:00:32;91767.41;;;11.47
71807;BMP280;59655;42.590;23.364;2023-05-07T06:02:57;91773.78;;;11.52
71807;BMP280;59655;42.590;23.364;2023-05-07T06:05:23;91776.81;;;11.56
71807;BMP280;59655;42.590;23.364;2023-05-07T06:07:48;91767.22;;;11.60
71807;BMP280;59655;42.590;23.364;2023-05-07T06:10:13;91777.31;;;11.62
71807;BMP280;59655;42.590;23.364;2023-05-07T06:12:39;91775.72;;;11.67
71807;BMP280;59655;42.590;23.364;2023-05-07T06:15:05;91771.28;;;11.69
71807;BMP280;59655;42.590;23.364;2023-05-07T06:17:31;91769.53;;;11.72
71807;BMP280;59655;42.590;23.364;2023-05-07T06:19:56;91776.78;;;11.79
71807;BMP280;59655;42.590;23.364;2023-05-07T06:22:21;91769.66;;;11.89
71807;BMP280;59655;42.590;23.364;2023-05-07T06:24:47;91771.78;;;11.91
71807;BMP280;59655;42.590;23.364;2023-05-07T06:27:13;91765.94;;;11.92
71807;BMP280;59655;42.590;23.364;2023-05-07T06:29:38;91768.22;;;11.96
71807;BMP280;59655;42.590;23.364;2023-05-07T06:32:11;91767.16;;;11.99
71807;BMP280;59655;42.590;23.364;2023-05-07T06:34:38;91771.56;;;12.04
71807;BMP280;59655;42.590;23.364;2023-05-07T06:37:03;91773.88;;;12.08
71807;BMP280;59655;42.590;23.364;2023-05-07T06:39:29;91769.06;;;12.21
71807;BMP280;59655;42.590;23.364;2023-05-07T06:41:55;91769.97;;;12.16
71807;BMP280;59655;42.590;23.364;2023-05-07T06:44:21;91765.28;;;12.24
71807;BMP280;59655;42.590;23.364;2023-05-07T06:46:46;91765.88;;;12.23
71807;BMP280;59655;42.590;23.364;2023-05-07T06:49:13;91761.56;;;12.27
71807;BMP280;59655;42.590;23.364;2023-05-07T06:51:38;91753.91;;;12.32
71807;BMP280;59655;42.590;23.364;2023-05-07T06:54:04;91762.03;;;12.41
71807;BMP280;59655;42.590;23.364;2023-05-07T06:56:30;91755.28;;;12.48
71807;BMP280;59655;42.590;23.364;2023-05-07T06:58:56;91754.56;;;12.47
71807;BMP280;59655;42.590;23.364;2023-05-07T07:01:21;91754.03;;;12.49
71807;BMP280;59655;42.590;23.364;2023-05-07T07:03:47;91749.72;;;12.54
71807;BMP280;59655;42.590;23.364;2023-05-07T07:06:13;91746.31;;;12.61
71807;BMP280;59655;42.590;23.364;2023-05-07T07:08:38;91756.81;;;12.59
71807;BMP280;59655;42.590;23.364;2023-05-07T07:11:04;91760.50;;;12.71
71807;BMP280;59655;42.590;23.364;2023-05-07T07:13:30;91760.50;;;12.71
71807;BMP280;59655;42.590;23.364;2023-05-07T07:15:56;91752.31;;;12.69
71807;BMP280;59655;42.590;23.364;2023-05-07T07:18:21;91760.50;;;12.71
71807;BMP280;59655;42.590;23.364;2023-05-07T07:20:47;91760.69;;;12.73
71807;BMP280;59655;42.590;23.364;2023-05-07T07:23:12;91756.91;;;12.76
71807;BMP280;59655;42.590;23.364;2023-05-07T07:25:38;91750.81;;;12.83
71807;BMP280;59655;42.590;23.364;2023-05-07T07:28:03;91751.69;;;12.86
71807;BMP280;59655;42.590;23.364;2023-05-07T07:30:29;91753.28;;;12.89
71807;BMP280;59655;42.590;23.364;2023-05-07T07:32:54;91752.03;;;12.90
71807;BMP280;59655;42.590;23.364;2023-05-07T07:35:23;91760.19;;;12.92
71807;BMP280;59655;42.590;23.364;2023-05-07T07:37:48;91759.09;;;12.95
71807;BMP280;59655;42.590;23.364;2023-05-07T07:40:15;91762.59;;;13.05
71807;BMP280;59655;42.590;23.364;2023-05-07T07:42:40;91766.13;;;13.08
71807;BMP280;59655;42.590;23.364;2023-05-07T07:45:06;91768.72;;;13.15
71807;BMP280;59655;42.590;23.364;2023-05-07T07:47:32;91764.75;;;13.24
71807;BMP280;59655;42.590;23.364;2023-05-07T07:49:57;91770.41;;;13.28
71807;BMP280;59655;42.590;23.364;2023-05-07T07:52:23;91765.91;;;13.38
71807;BMP280;59655;42.590;23.364;2023-05-07T07:54:48;91766.69;;;13.49
71807;BMP280;59655;42.590;23.364;2023-05-07T07:57:13;91762.75;;;13.50
71807;BMP280;59655;42.590;23.364;2023-05-07T07:59:39;91766.47;;;13.54
71807;BMP280;59655;42.590;23.364;2023-05-07T08:02:05;91766.63;;;13.74
71807;BMP280;59655;42.590;23.364;2023-05-07T08:04:30;91764.84;;;13.76
71807;BMP280;59655;42.590;23.364;2023-05-07T08:06:58;91769.78;;;13.80
71807;BMP280;59655;42.590;23.364;2023-05-07T08:09:24;91770.47;;;13.80
71807;BMP280;59655;42.590;23.364;2023-05-07T08:11:49;91763.91;;;13.81
71807;BMP280;59655;42.590;23.364;2023-05-07T08:14:14;91774.75;;;13.83
71807;BMP280;59655;42.590;23.364;2023-05-07T08:16:41;91767.25;;;13.99
71807;BMP280;59655;42.590;23.364;2023-05-07T08:19:06;91768.84;;;14.02
71807;BMP280;59655;42.590;23.364;2023-05-07T08:21:32;91766.94;;;14.13
71807;BMP280;59655;42.590;23.364;2023-05-07T08:23:57;91772.00;;;14.09
71807;BMP280;59655;42.590;23.364;2023-05-07T08:26:22;91772.44;;;14.15
71807;BMP280;59655;42.590;23.364;2023-05-07T08:28:48;91768.13;;;14.19
71807;BMP280;59655;42.590;23.364;2023-05-07T08:31:13;91771.94;;;14.43
71807;BMP280;59655;42.590;23.364;2023-05-07T08:33:39;91770.53;;;14.42
71807;BMP280;59655;42.590;23.364;2023-05-07T08:36:04;91766.59;;;14.43
71807;BMP280;59655;42.590;23.364;2023-05-07T08:38:31;91775.50;;;14.56
71807;BMP280;59655;42.590;23.364;2023-05-07T08:40:56;91772.47;;;14.59
71807;BMP280;59655;42.590;23.364;2023-05-07T08:43:23;91766.81;;;14.55
71807;BMP280;59655;42.590;23.364;2023-05-07T08:45:54;91769.47;;;14.55
71807;BMP280;59655;42.590;23.364;2023-05-07T08:48:24;91773.59;;;14.66
71807;BMP280;59655;42.590;23.364;2023-05-07T08:50:50;91769.91;;;14.61
71807;BMP280;59655;42.590;23.364;2023-05-07T08:53:16;91764.38;;;14.77
71807;BMP280;59655;42.590;23.364;2023-05-07T08:55:41;91769.31;;;14.80
71807;BMP280;59655;42.590;23.364;2023-05-07T08:58:07;91760.75;;;14.82
71807;BMP280;59655;42.590;23.364;2023-05-07T09:00:33;91761.84;;;14.79
71807;BMP280;59655;42.590;23.364;2023-05-07T09:03:00;91755.25;;;14.80
71807;BMP280;59655;42.590;23.364;2023-05-07T09:05:25;91759.22;;;14.88
71807;BMP280;59655;42.590;23.364;2023-05-07T09:07:51;91743.78;;;14.96
71807;BMP280;59655;42.590;23.364;2023-05-07T09:10:16;91751.44;;;15.00
71807;BMP280;59655;42.590;23.364;2023-05-07T09:12:42;91748.31;;;15.04
71807;BMP280;59655;42.590;23.364;2023-05-07T09:15:07;91745.66;;;15.13
71807;BMP280;59655;42.590;23.364;2023-05-07T09:17:33;91748.66;;;15.17
71807;BMP280;59655;42.590;23.364;2023-05-07T09:20:05;91749.91;;;15.16
71807;BMP280;59655;42.590;23.364;2023-05-07T09:22:32;91749.50;;;15.20
71807;BMP280;59655;42.590;23.364;2023-05-07T09:24:58;91744.63;;;15.36
71807;BMP280;59655;42.590;23.364;2023-05-07T09:27:24;91743.34;;;15.37
71807;BMP280;59655;42.590;23.364;2023-05-07T09:29:50;91732.69;;;15.47
71807;BMP280;59655;42.590;23.364;2023-05-07T09:32:16;91736.44;;;15.44
71807;BMP280;59655;42.590;23.364;2023-05-07T09:34:42;91732.69;;;15.47
71807;BMP280;59655;42.590;23.364;2023-05-07T09:37:07;91734.50;;;15.63
71807;BMP280;59655;42.590;23.364;2023-05-07T09:39:48;91738.59;;;15.74
71807;BMP280;59655;42.590;23.364;2023-05-07T09:42:14;91737.19;;;15.63
71807;BMP280;59655;42.590;23.364;2023-05-07T09:44:40;91736.34;;;15.80
71807;BMP280;59655;42.590;23.364;2023-05-07T09:47:06;91726.75;;;15.87
71807;BMP280;59655;42.590;23.364;2023-05-07T09:49:37;91735.63;;;15.90
71807;BMP280;59655;42.590;23.364;2023-05-07T09:52:05;91724.91;;;16.09
71807;BMP280;59655;42.590;23.364;2023-05-07T09:54:33;91728.16;;;15.98
71807;BMP280;59655;42.590;23.364;2023-05-07T09:56:59;91736.19;;;16.07
71807;BMP280;59655;42.590;23.364;2023-05-07T09:59:27;91729.28;;;16.14
71807;BMP280;59655;42.590;23.364;2023-05-07T10:01:57;91727.59;;;15.99
71807;BMP280;59655;42.590;23.364;2023-05-07T10:04:25;91732.78;;;16.17
71807;BMP280;59655;42.590;23.364;2023-05-07T10:06:51;91726.91;;;16.08
71807;BMP280;59655;42.590;23.364;2023-05-07T10:09:18;91717.97;;;16.35
71807;BMP280;59655;42.590;23.364;2023-05-07T10:11:44;91721.19;;;16.43
71807;BMP280;59655;42.590;23.364;2023-05-07T10:14:10;91722.88;;;16.48
71807;BMP280;59655;42.590;23.364;2023-05-07T10:16:36;91722.75;;;16.27
71807;BMP280;59655;42.590;23.364;2023-05-07T10:19:06;91726.19;;;16.18
71807;BMP280;59655;42.590;23.364;2023-05-07T10:21:36;91714.50;;;16.13
71807;BMP280;59655;42.590;23.364;2023-05-07T10:24:09;91711.00;;;16.01
71807;BMP280;59655;42.590;23.364;2023-05-07T10:26:40;91712.81;;;15.98
71807;BMP280;59655;42.590;23.364;2023-05-07T10:29:14;91708.88;;;15.99
71807;BMP280;59655;42.590;23.364;2023-05-07T10:34:26;91702.94;;;16.10
71807;BMP280;59655;42.590;23.364;2023-05-07T10:36:53;91695.34;;;16.07
71807;BMP280;59655;42.590;23.364;2023-05-07T10:39:20;91701.22;;;16.25
71807;BMP280;59655;42.590;23.364;2023-05-07T10:41:47;91691.75;;;16.33
71807;BMP280;59655;42.590;23.364;2023-05-07T10:44:33;91692.06;;;16.28
71807;BMP280;59655;42.590;23.364;2023-05-07T10:47:07;91687.13;;;16.15
71807;BMP280;59655;42.590;23.364;2023-05-07T10:52:22;91696.81;;;16.39
71807;BMP280;59655;42.590;23.364;2023-05-07T10:57:42;91695.25;;;16.46
71807;BMP280;59655;42.590;23.364;2023-05-07T11:05:28;91693.31;;;16.68
71807;BMP280;59655;42.590;23.364;2023-05-07T11:08:01;91702.06;;;16.68
71807;BMP280;59655;42.590;23.364;2023-05-07T11:13:16;91701.75;;;16.74
71807;BMP280;59655;42.590;23.364;2023-05-07T11:15:46;91696.22;;;16.82
71807;BMP280;59655;42.590;23.364;2023-05-07T11:18:15;91697.09;;;16.74
71807;BMP280;59655;42.590;23.364;2023-05-07T11:20:49;91695.34;;;16.89
71807;BMP280;59655;42.590;23.364;2023-05-07T11:26:10;91688.03;;;17.11
71807;BMP280;59655;42.590;23.364;2023-05-07T11:28:41;91693.53;;;17.13
71807;BMP280;59655;42.590;23.364;2023-05-07T11:31:07;91679.03;;;17.06
71807;BMP280;59655;42.590;23.364;2023-05-07T11:33:34;91691.91;;;17.19
71807;BMP280;59655;42.590;23.364;2023-05-07T11:36:00;91683.19;;;17.19
71807;BMP280;59655;42.590;23.364;2023-05-07T11:38:30;91687.84;;;17.18
71807;BMP280;59655;42.590;23.364;2023-05-07T11:40:57;91680.31;;;17.60
71807;BMP280;59655;42.590;23.364;2023-05-07T11:43:25;91676.97;;;17.38
71807;BMP280;59655;42.590;23.364;2023-05-07T11:45:51;91678.94;;;17.59
71807;BMP280;59655;42.590;23.364;2023-05-07T11:48:17;91676.91;;;17.47
71807;BMP280;59655;42.590;23.364;2023-05-07T11:53:27;91677.13;;;17.40
71807;BMP280;59655;42.590;23.364;2023-05-07T11:55:53;91678.50;;;17.41
71807;BMP280;59655;42.590;23.364;2023-05-07T11:58:23;91673.34;;;17.55
71807;BMP280;59655;42.590;23.364;2023-05-07T12:00:53;91674.63;;;17.65
71807;BMP280;59655;42.590;23.364;2023-05-07T12:03:19;91673.50;;;17.68
71807;BMP280;59655;42.590;23.364;2023-05-07T12:05:45;91679.41;;;17.67
71807;BMP280;59655;42.590;23.364;2023-05-07T12:08:18;91675.59;;;17.70
71807;BMP280;59655;42.590;23.364;2023-05-07T12:10:45;91663.22;;;17.77
71807;BMP280;59655;42.590;23.364;2023-05-07T12:13:24;91664.31;;;17.83
71807;BMP280;59655;42.590;23.364;2023-05-07T12:15:54;91661.09;;;17.97
71807;BMP280;59655;42.590;23.364;2023-05-07T12:18:20;91662.94;;;18.06
71807;BMP280;59655;42.590;23.364;2023-05-07T12:20:46;91655.28;;;18.24
71807;BMP280;59655;42.590;23.364;2023-05-07T12:23:12;91656.78;;;18.38
71807;BMP280;59655;42.590;23.364;2023-05-07T12:25:45;91656.69;;;18.60
71807;BMP280;59655;42.590;23.364;2023-05-07T12:28:22;91659.22;;;18.93
71807;BMP280;59655;42.590;23.364;2023-05-07T12:30:54;91644.59;;;19.59
71807;BMP280;59655;42.590;23.364;2023-05-07T12:33:27;91647.47;;;20.69
71807;BMP280;59655;42.590;23.364;2023-05-07T12:35:55;91636.81;;;21.90
71807;BMP280;59655;42.590;23.364;2023-05-07T12:38:21;91631.13;;;22.81
71807;BMP280;59655;42.590;23.364;2023-05-07T12:40:49;91643.84;;;22.78
71807;BMP280;59655;42.590;23.364;2023-05-07T12:43:24;91635.88;;;23.16
71807;BMP280;59655;42.590;23.364;2023-05-07T12:45:54;91626.56;;;23.94
71807;BMP280;59655;42.590;23.364;2023-05-07T12:48:22;91629.28;;;24.54
71807;BMP280;59655;42.590;23.364;2023-05-07T12:50:50;91626.41;;;24.94
71807;BMP280;59655;42.590;23.364;2023-05-07T12:53:23;91627.16;;;25.40
71807;BMP280;59655;42.590;23.364;2023-05-07T12:55:53;91624.00;;;25.72
71807;BMP280;59655;42.590;23.364;2023-05-07T12:58:28;91623.41;;;25.76
71807;BMP280;59655;42.590;23.364;2023-05-07T13:01:00;91617.00;;;26.17
71807;BMP280;59655;42.590;23.364;2023-05-07T13:03:31;91611.34;;;26.33
71807;BMP280;59655;42.590;23.364;2023-05-07T13:06:00;91613.06;;;26.76
71807;BMP280;59655;42.590;23.364;2023-05-07T13:08:31;91611.13;;;26.81
71807;BMP280;59655;42.590;23.364;2023-05-07T13:11:02;91613.41;;;25.58
71807;BMP280;59655;42.590;23.364;2023-05-07T13:13:29;91616.97;;;25.65
71807;BMP280;59655;42.590;23.364;2023-05-07T13:15:55;91611.97;;;26.05
71807;BMP280;59655;42.590;23.364;2023-05-07T13:18:21;91603.97;;;26.65
71807;BMP280;59655;42.590;23.364;2023-05-07T13:20:46;91601.53;;;27.08
71807;BMP280;59655;42.590;23.364;2023-05-07T13:23:11;91601.16;;;27.21
71807;BMP280;59655;42.590;23.364;2023-05-07T13:25:37;91600.88;;;27.09
71807;BMP280;59655;42.590;23.364;2023-05-07T13:28:03;91597.22;;;26.98
71807;BMP280;59655;42.590;23.364;2023-05-07T13:30:29;91597.38;;;26.20
71807;BMP280;59655;42.590;23.364;2023-05-07T13:32:55;91596.72;;;25.22
71807;BMP280;59655;42.590;23.364;2023-05-07T13:35:21;91593.47;;;24.60
71807;BMP280;59655;42.590;23.364;2023-05-07T13:37:47;91594.50;;;24.09
71807;BMP280;59655;42.590;23.364;2023-05-07T13:40:15;91598.59;;;23.70
71807;BMP280;59655;42.590;23.364;2023-05-07T13:42:40;91601.56;;;23.40
71807;BMP280;59655;42.590;23.364;2023-05-07T13:45:11;91597.22;;;23.15
71807;BMP280;59655;42.590;23.364;2023-05-07T13:47:42;91598.19;;;23.04
71807;BMP280;59655;42.590;23.364;2023-05-07T13:50:08;91598.16;;;22.86
71807;BMP280;59655;42.590;23.364;2023-05-07T13:52:34;91595.69;;;22.75
71807;BMP280;59655;42.590;23.364;2023-05-07T13:55:00;91604.13;;;22.83
71807;BMP280;59655;42.590;23.364;2023-05-07T13:57:25;91598.16;;;23.58
71807;BMP280;59655;42.590;23.364;2023-05-07T13:59:51;91598.94;;;23.25
71807;BMP280;59655;42.590;23.364;2023-05-07T14:02:17;91604.53;;;22.59
71807;BMP280;59655;42.590;23.364;2023-05-07T14:04:43;91611.66;;;22.35
71807;BMP280;59655;42.590;23.364;2023-05-07T14:07:08;91600.03;;;22.14
71807;BMP280;59655;42.590;23.364;2023-05-07T14:09:33;91606.22;;;22.01
71807;BMP280;59655;42.590;23.364;2023-05-07T14:11:59;91609.34;;;21.80
71807;BMP280;59655;42.590;23.364;2023-05-07T14:14:24;91613.31;;;21.63
71807;BMP280;59655;42.590;23.364;2023-05-07T14:16:50;91612.97;;;21.55